<?xml version="1.0" encoding="UTF-8" standalone="no" ?>
<gpx xmlns="http://www.topografix.com/GPX/1/1" xmlns:xsi="http://www.w3.org/2001/XMLSchema-instance" xsi:schemaLocation="http://www.topografix.com/GPX/1/1 http://www.topografix.com/GPX/1/1/gpx.xsd" version="1.1" creator="VisuGPX - https://www.visugpx.com">
  <metadata>
    <name>Cap d\'Agde</name>
    <desc><![CDATA[ASLV ( Jean Claude)]]></desc>
  </metadata>
  <trk>
    <name><![CDATA[Cap d\'Agde_1]]></name>
    <cmt><![CDATA[25-05-2012]]></cmt>
    <trkseg>
      <trkpt lat="43.28868" lon="3.47609">
        <ele>10</ele>
        <time>2012-05-25T12:01:18</time>
      </trkpt>
      <trkpt lat="43.28865" lon="3.47614">
        <ele>-2</ele>
        <time>2012-05-25T12:01:47</time>
      </trkpt>
      <trkpt lat="43.28833" lon="3.47614">
        <ele>-1</ele>
        <time>2012-05-25T12:02:17</time>
      </trkpt>
      <trkpt lat="43.288" lon="3.47618">
        <ele>-1</ele>
        <time>2012-05-25T12:02:47</time>
      </trkpt>
      <trkpt lat="43.28799" lon="3.47619">
        <ele>-1</ele>
        <time>2012-05-25T12:03:18</time>
      </trkpt>
      <trkpt lat="43.28787" lon="3.47654">
        <ele>-2</ele>
        <time>2012-05-25T12:03:48</time>
      </trkpt>
      <trkpt lat="43.28768" lon="3.47665">
        <ele>-2</ele>
        <time>2012-05-25T12:04:18</time>
      </trkpt>
      <trkpt lat="43.28753" lon="3.47703">
        <ele>-2</ele>
        <time>2012-05-25T12:04:48</time>
      </trkpt>
      <trkpt lat="43.28732" lon="3.47746">
        <ele>-2</ele>
        <time>2012-05-25T12:05:18</time>
      </trkpt>
      <trkpt lat="43.28719" lon="3.47799">
        <ele>-1</ele>
        <time>2012-05-25T12:05:49</time>
      </trkpt>
      <trkpt lat="43.28708" lon="3.47853">
        <ele>-2</ele>
        <time>2012-05-25T12:06:19</time>
      </trkpt>
      <trkpt lat="43.28693" lon="3.47903">
        <ele>-1</ele>
        <time>2012-05-25T12:06:49</time>
      </trkpt>
      <trkpt lat="43.28679" lon="3.47949">
        <ele>-2</ele>
        <time>2012-05-25T12:07:19</time>
      </trkpt>
      <trkpt lat="43.28663" lon="3.47994">
        <ele>-2</ele>
        <time>2012-05-25T12:07:49</time>
      </trkpt>
      <trkpt lat="43.2865" lon="3.48034">
        <ele>-2</ele>
        <time>2012-05-25T12:08:20</time>
      </trkpt>
      <trkpt lat="43.28636" lon="3.48075">
        <ele>-2</ele>
        <time>2012-05-25T12:08:50</time>
      </trkpt>
      <trkpt lat="43.28635" lon="3.48093">
        <ele>-1</ele>
        <time>2012-05-25T12:09:20</time>
      </trkpt>
      <trkpt lat="43.28669" lon="3.48098">
        <ele>-3</ele>
        <time>2012-05-25T12:09:50</time>
      </trkpt>
      <trkpt lat="43.28702" lon="3.48097">
        <ele>-4</ele>
        <time>2012-05-25T12:10:20</time>
      </trkpt>
      <trkpt lat="43.28729" lon="3.48087">
        <ele>-3</ele>
        <time>2012-05-25T12:10:51</time>
      </trkpt>
      <trkpt lat="43.28765" lon="3.48082">
        <ele>-3</ele>
        <time>2012-05-25T12:11:21</time>
      </trkpt>
      <trkpt lat="43.28791" lon="3.48086">
        <ele>-2</ele>
        <time>2012-05-25T12:11:51</time>
      </trkpt>
      <trkpt lat="43.28811" lon="3.48119">
        <ele>-1</ele>
        <time>2012-05-25T12:12:21</time>
      </trkpt>
      <trkpt lat="43.28818" lon="3.4816">
        <ele>-2</ele>
        <time>2012-05-25T12:12:51</time>
      </trkpt>
      <trkpt lat="43.28845" lon="3.48154">
        <ele>-2</ele>
        <time>2012-05-25T12:13:21</time>
      </trkpt>
      <trkpt lat="43.28877" lon="3.48147">
        <ele>-2</ele>
        <time>2012-05-25T12:13:52</time>
      </trkpt>
      <trkpt lat="43.28905" lon="3.48143">
        <ele>-1</ele>
        <time>2012-05-25T12:14:22</time>
      </trkpt>
      <trkpt lat="43.28909" lon="3.4816">
        <ele>-2</ele>
        <time>2012-05-25T12:14:52</time>
      </trkpt>
      <trkpt lat="43.28908" lon="3.4821">
        <ele>-3</ele>
        <time>2012-05-25T12:15:22</time>
      </trkpt>
      <trkpt lat="43.28902" lon="3.48254">
        <ele>-2</ele>
        <time>2012-05-25T12:15:52</time>
      </trkpt>
      <trkpt lat="43.28893" lon="3.48293">
        <ele>-1</ele>
        <time>2012-05-25T12:16:23</time>
      </trkpt>
      <trkpt lat="43.28899" lon="3.48325">
        <ele>-2</ele>
        <time>2012-05-25T12:16:53</time>
      </trkpt>
      <trkpt lat="43.28906" lon="3.48347">
        <ele>-3</ele>
        <time>2012-05-25T12:17:23</time>
      </trkpt>
      <trkpt lat="43.28926" lon="3.48385">
        <ele>-3</ele>
        <time>2012-05-25T12:17:53</time>
      </trkpt>
      <trkpt lat="43.28944" lon="3.48425">
        <ele>-3</ele>
        <time>2012-05-25T12:18:23</time>
      </trkpt>
      <trkpt lat="43.2896" lon="3.48463">
        <ele>-2</ele>
        <time>2012-05-25T12:18:53</time>
      </trkpt>
      <trkpt lat="43.28971" lon="3.48501">
        <ele>-2</ele>
        <time>2012-05-25T12:19:24</time>
      </trkpt>
      <trkpt lat="43.28976" lon="3.48529">
        <ele>-4</ele>
        <time>2012-05-25T12:19:54</time>
      </trkpt>
      <trkpt lat="43.28965" lon="3.48575">
        <ele>-5</ele>
        <time>2012-05-25T12:20:24</time>
      </trkpt>
      <trkpt lat="43.28956" lon="3.48601">
        <ele>-4</ele>
        <time>2012-05-25T12:20:54</time>
      </trkpt>
      <trkpt lat="43.28939" lon="3.48642">
        <ele>-5</ele>
        <time>2012-05-25T12:21:24</time>
      </trkpt>
      <trkpt lat="43.28933" lon="3.48686">
        <ele>-5</ele>
        <time>2012-05-25T12:21:54</time>
      </trkpt>
      <trkpt lat="43.28945" lon="3.48721">
        <ele>-5</ele>
        <time>2012-05-25T12:22:25</time>
      </trkpt>
      <trkpt lat="43.28952" lon="3.48763">
        <ele>-5</ele>
        <time>2012-05-25T12:22:55</time>
      </trkpt>
      <trkpt lat="43.2893" lon="3.48792">
        <ele>-5</ele>
        <time>2012-05-25T12:23:25</time>
      </trkpt>
      <trkpt lat="43.28902" lon="3.48814">
        <ele>-6</ele>
        <time>2012-05-25T12:23:55</time>
      </trkpt>
      <trkpt lat="43.28873" lon="3.48828">
        <ele>-5</ele>
        <time>2012-05-25T12:24:25</time>
      </trkpt>
      <trkpt lat="43.28845" lon="3.48843">
        <ele>-5</ele>
        <time>2012-05-25T12:24:56</time>
      </trkpt>
      <trkpt lat="43.28836" lon="3.48881">
        <ele>-6</ele>
        <time>2012-05-25T12:25:26</time>
      </trkpt>
      <trkpt lat="43.28864" lon="3.48899">
        <ele>-4</ele>
        <time>2012-05-25T12:25:56</time>
      </trkpt>
      <trkpt lat="43.28891" lon="3.48918">
        <ele>-4</ele>
        <time>2012-05-25T12:26:26</time>
      </trkpt>
      <trkpt lat="43.28917" lon="3.48944">
        <ele>-3</ele>
        <time>2012-05-25T12:26:56</time>
      </trkpt>
      <trkpt lat="43.28938" lon="3.48961">
        <ele>-3</ele>
        <time>2012-05-25T12:27:27</time>
      </trkpt>
      <trkpt lat="43.28946" lon="3.48962">
        <ele>-3</ele>
        <time>2012-05-25T12:27:57</time>
      </trkpt>
      <trkpt lat="43.28963" lon="3.48979">
        <ele>-4</ele>
        <time>2012-05-25T12:28:27</time>
      </trkpt>
      <trkpt lat="43.28983" lon="3.48995">
        <ele>-4</ele>
        <time>2012-05-25T12:28:57</time>
      </trkpt>
      <trkpt lat="43.29005" lon="3.49017">
        <ele>-3</ele>
        <time>2012-05-25T12:29:27</time>
      </trkpt>
      <trkpt lat="43.28997" lon="3.49059">
        <ele>-2</ele>
        <time>2012-05-25T12:29:58</time>
      </trkpt>
      <trkpt lat="43.28985" lon="3.49094">
        <ele>-1</ele>
        <time>2012-05-25T12:30:28</time>
      </trkpt>
      <trkpt lat="43.2897" lon="3.49134">
        <ele>-2</ele>
        <time>2012-05-25T12:30:58</time>
      </trkpt>
      <trkpt lat="43.28953" lon="3.49168">
        <ele>-1</ele>
        <time>2012-05-25T12:31:28</time>
      </trkpt>
      <trkpt lat="43.28956" lon="3.49196">
        <ele>-1</ele>
        <time>2012-05-25T12:31:58</time>
      </trkpt>
      <trkpt lat="43.28975" lon="3.49206">
        <ele>12.4</ele>
        <time>2012-05-25T12:32:29</time>
      </trkpt>
      <trkpt lat="43.29001" lon="3.4922">
        <ele>12</ele>
        <time>2012-05-25T12:32:59</time>
      </trkpt>
      <trkpt lat="43.29032" lon="3.4924">
        <ele>12.7</ele>
        <time>2012-05-25T12:33:29</time>
      </trkpt>
      <trkpt lat="43.29057" lon="3.49256">
        <ele>1</ele>
        <time>2012-05-25T12:33:59</time>
      </trkpt>
      <trkpt lat="43.2907" lon="3.49281">
        <ele>2</ele>
        <time>2012-05-25T12:34:29</time>
      </trkpt>
      <trkpt lat="43.29055" lon="3.49324">
        <ele>1</ele>
        <time>2012-05-25T12:34:59</time>
      </trkpt>
      <trkpt lat="43.29031" lon="3.49354">
        <ele>1</ele>
        <time>2012-05-25T12:35:30</time>
      </trkpt>
      <trkpt lat="43.29002" lon="3.49367">
        <ele>1</ele>
        <time>2012-05-25T12:36:00</time>
      </trkpt>
      <trkpt lat="43.29015" lon="3.49397">
        <ele>1</ele>
        <time>2012-05-25T12:36:30</time>
      </trkpt>
      <trkpt lat="43.29043" lon="3.49423">
        <ele>2</ele>
        <time>2012-05-25T12:37:00</time>
      </trkpt>
      <trkpt lat="43.29068" lon="3.49429">
        <ele>2</ele>
        <time>2012-05-25T12:37:30</time>
      </trkpt>
      <trkpt lat="43.29084" lon="3.49394">
        <ele>3</ele>
        <time>2012-05-25T12:38:00</time>
      </trkpt>
      <trkpt lat="43.29103" lon="3.49395">
        <ele>4</ele>
        <time>2012-05-25T12:38:31</time>
      </trkpt>
      <trkpt lat="43.29121" lon="3.49388">
        <ele>5</ele>
        <time>2012-05-25T12:39:01</time>
      </trkpt>
      <trkpt lat="43.29142" lon="3.49367">
        <ele>6</ele>
        <time>2012-05-25T12:39:31</time>
      </trkpt>
      <trkpt lat="43.29166" lon="3.49378">
        <ele>9</ele>
        <time>2012-05-25T12:40:01</time>
      </trkpt>
      <trkpt lat="43.29187" lon="3.49384">
        <ele>11</ele>
        <time>2012-05-25T12:40:31</time>
      </trkpt>
      <trkpt lat="43.29201" lon="3.49419">
        <ele>12</ele>
        <time>2012-05-25T12:41:01</time>
      </trkpt>
      <trkpt lat="43.292" lon="3.49463">
        <ele>15</ele>
        <time>2012-05-25T12:41:32</time>
      </trkpt>
      <trkpt lat="43.29189" lon="3.49496">
        <ele>15</ele>
        <time>2012-05-25T12:42:02</time>
      </trkpt>
      <trkpt lat="43.2919" lon="3.49498">
        <ele>15</ele>
        <time>2012-05-25T12:42:32</time>
      </trkpt>
      <trkpt lat="43.29195" lon="3.49496">
        <ele>15</ele>
        <time>2012-05-25T12:43:02</time>
      </trkpt>
      <trkpt lat="43.29196" lon="3.49499">
        <ele>14</ele>
        <time>2012-05-25T12:43:32</time>
      </trkpt>
      <trkpt lat="43.29194" lon="3.49494">
        <ele>15</ele>
        <time>2012-05-25T12:44:03</time>
      </trkpt>
      <trkpt lat="43.29196" lon="3.49489">
        <ele>16</ele>
        <time>2012-05-25T12:44:33</time>
      </trkpt>
      <trkpt lat="43.29188" lon="3.4949">
        <ele>15</ele>
        <time>2012-05-25T12:45:03</time>
      </trkpt>
      <trkpt lat="43.29186" lon="3.49491">
        <ele>15</ele>
        <time>2012-05-25T12:45:33</time>
      </trkpt>
      <trkpt lat="43.29184" lon="3.49486">
        <ele>14</ele>
        <time>2012-05-25T12:46:03</time>
      </trkpt>
      <trkpt lat="43.29188" lon="3.49489">
        <ele>15</ele>
        <time>2012-05-25T12:46:33</time>
      </trkpt>
      <trkpt lat="43.2919" lon="3.4949">
        <ele>15</ele>
        <time>2012-05-25T12:47:04</time>
      </trkpt>
      <trkpt lat="43.29187" lon="3.49493">
        <ele>15</ele>
        <time>2012-05-25T12:47:34</time>
      </trkpt>
      <trkpt lat="43.2919" lon="3.4949">
        <ele>17</ele>
        <time>2012-05-25T12:48:04</time>
      </trkpt>
      <trkpt lat="43.29186" lon="3.49489">
        <ele>16</ele>
        <time>2012-05-25T12:48:34</time>
      </trkpt>
      <trkpt lat="43.29185" lon="3.49486">
        <ele>16</ele>
        <time>2012-05-25T12:49:04</time>
      </trkpt>
      <trkpt lat="43.29186" lon="3.49486">
        <ele>15</ele>
        <time>2012-05-25T12:49:34</time>
      </trkpt>
      <trkpt lat="43.29187" lon="3.49492">
        <ele>15</ele>
        <time>2012-05-25T12:50:05</time>
      </trkpt>
      <trkpt lat="43.29188" lon="3.49494">
        <ele>15</ele>
        <time>2012-05-25T12:50:35</time>
      </trkpt>
      <trkpt lat="43.29187" lon="3.49498">
        <ele>16</ele>
        <time>2012-05-25T12:51:05</time>
      </trkpt>
      <trkpt lat="43.29188" lon="3.49495">
        <ele>16</ele>
        <time>2012-05-25T12:51:35</time>
      </trkpt>
      <trkpt lat="43.29176" lon="3.49515">
        <ele>15</ele>
        <time>2012-05-25T12:52:05</time>
      </trkpt>
      <trkpt lat="43.29163" lon="3.49532">
        <ele>15</ele>
        <time>2012-05-25T12:52:35</time>
      </trkpt>
      <trkpt lat="43.29154" lon="3.49565">
        <ele>14</ele>
        <time>2012-05-25T12:53:06</time>
      </trkpt>
      <trkpt lat="43.29142" lon="3.49602">
        <ele>15</ele>
        <time>2012-05-25T12:53:36</time>
      </trkpt>
      <trkpt lat="43.29141" lon="3.49639">
        <ele>16</ele>
        <time>2012-05-25T12:54:06</time>
      </trkpt>
      <trkpt lat="43.29138" lon="3.49676">
        <ele>16</ele>
        <time>2012-05-25T12:54:36</time>
      </trkpt>
      <trkpt lat="43.29134" lon="3.49719">
        <ele>17</ele>
        <time>2012-05-25T12:55:07</time>
      </trkpt>
      <trkpt lat="43.29131" lon="3.49758">
        <ele>20</ele>
        <time>2012-05-25T12:55:37</time>
      </trkpt>
      <trkpt lat="43.29124" lon="3.49798">
        <ele>22</ele>
        <time>2012-05-25T12:56:07</time>
      </trkpt>
      <trkpt lat="43.29114" lon="3.49816">
        <ele>21</ele>
        <time>2012-05-25T12:56:37</time>
      </trkpt>
      <trkpt lat="43.29108" lon="3.49826">
        <ele>21</ele>
        <time>2012-05-25T12:57:07</time>
      </trkpt>
      <trkpt lat="43.29099" lon="3.49855">
        <ele>23</ele>
        <time>2012-05-25T12:57:38</time>
      </trkpt>
      <trkpt lat="43.2911" lon="3.49878">
        <ele>25</ele>
        <time>2012-05-25T12:58:08</time>
      </trkpt>
      <trkpt lat="43.29127" lon="3.49908">
        <ele>28</ele>
        <time>2012-05-25T12:58:38</time>
      </trkpt>
      <trkpt lat="43.2911" lon="3.49933">
        <ele>30</ele>
        <time>2012-05-25T12:59:08</time>
      </trkpt>
      <trkpt lat="43.29077" lon="3.49945">
        <ele>29</ele>
        <time>2012-05-25T12:59:38</time>
      </trkpt>
      <trkpt lat="43.29048" lon="3.49956">
        <ele>31</ele>
        <time>2012-05-25T13:00:09</time>
      </trkpt>
      <trkpt lat="43.29019" lon="3.4997">
        <ele>33</ele>
        <time>2012-05-25T13:00:39</time>
      </trkpt>
      <trkpt lat="43.28989" lon="3.49984">
        <ele>35</ele>
        <time>2012-05-25T13:01:09</time>
      </trkpt>
      <trkpt lat="43.28965" lon="3.5001">
        <ele>33</ele>
        <time>2012-05-25T13:01:39</time>
      </trkpt>
      <trkpt lat="43.28943" lon="3.50033">
        <ele>31</ele>
        <time>2012-05-25T13:02:09</time>
      </trkpt>
      <trkpt lat="43.2892" lon="3.5006">
        <ele>27</ele>
        <time>2012-05-25T13:02:39</time>
      </trkpt>
      <trkpt lat="43.28912" lon="3.50104">
        <ele>26</ele>
        <time>2012-05-25T13:03:10</time>
      </trkpt>
      <trkpt lat="43.28914" lon="3.50139">
        <ele>25</ele>
        <time>2012-05-25T13:03:40</time>
      </trkpt>
      <trkpt lat="43.28895" lon="3.50127">
        <ele>23</ele>
        <time>2012-05-25T13:04:10</time>
      </trkpt>
      <trkpt lat="43.2888" lon="3.50122">
        <ele>21</ele>
        <time>2012-05-25T13:04:40</time>
      </trkpt>
      <trkpt lat="43.28864" lon="3.50153">
        <ele>17</ele>
        <time>2012-05-25T13:05:10</time>
      </trkpt>
      <trkpt lat="43.28837" lon="3.50178">
        <ele>15</ele>
        <time>2012-05-25T13:05:41</time>
      </trkpt>
      <trkpt lat="43.28811" lon="3.50191">
        <ele>15</ele>
        <time>2012-05-25T13:06:11</time>
      </trkpt>
      <trkpt lat="43.28785" lon="3.50206">
        <ele>11</ele>
        <time>2012-05-25T13:06:41</time>
      </trkpt>
      <trkpt lat="43.28754" lon="3.50224">
        <ele>9</ele>
        <time>2012-05-25T13:07:11</time>
      </trkpt>
      <trkpt lat="43.28724" lon="3.50242">
        <ele>8</ele>
        <time>2012-05-25T13:07:41</time>
      </trkpt>
      <trkpt lat="43.28695" lon="3.50257">
        <ele>6</ele>
        <time>2012-05-25T13:08:11</time>
      </trkpt>
      <trkpt lat="43.28668" lon="3.50275">
        <ele>4</ele>
        <time>2012-05-25T13:08:42</time>
      </trkpt>
      <trkpt lat="43.28636" lon="3.50294">
        <ele>3</ele>
        <time>2012-05-25T13:09:12</time>
      </trkpt>
      <trkpt lat="43.28609" lon="3.50311">
        <ele>1</ele>
        <time>2012-05-25T13:09:42</time>
      </trkpt>
      <trkpt lat="43.28576" lon="3.50336">
        <ele>8.5</ele>
        <time>2012-05-25T13:10:12</time>
      </trkpt>
      <trkpt lat="43.28544" lon="3.50353">
        <ele>-4</ele>
        <time>2012-05-25T13:10:42</time>
      </trkpt>
      <trkpt lat="43.28512" lon="3.50332">
        <ele>-5</ele>
        <time>2012-05-25T13:11:13</time>
      </trkpt>
      <trkpt lat="43.28492" lon="3.50287">
        <ele>-5</ele>
        <time>2012-05-25T13:11:43</time>
      </trkpt>
      <trkpt lat="43.28479" lon="3.50239">
        <ele>-6</ele>
        <time>2012-05-25T13:12:14</time>
      </trkpt>
      <trkpt lat="43.28468" lon="3.502">
        <ele>-6</ele>
        <time>2012-05-25T13:12:43</time>
      </trkpt>
      <trkpt lat="43.2846" lon="3.50154">
        <ele>-5</ele>
        <time>2012-05-25T13:13:13</time>
      </trkpt>
      <trkpt lat="43.28445" lon="3.50117">
        <ele>-6</ele>
        <time>2012-05-25T13:13:43</time>
      </trkpt>
      <trkpt lat="43.28426" lon="3.50073">
        <ele>-6</ele>
        <time>2012-05-25T13:14:14</time>
      </trkpt>
      <trkpt lat="43.28407" lon="3.50029">
        <ele>-6</ele>
        <time>2012-05-25T13:14:44</time>
      </trkpt>
      <trkpt lat="43.28391" lon="3.49988">
        <ele>-6</ele>
        <time>2012-05-25T13:15:14</time>
      </trkpt>
      <trkpt lat="43.28378" lon="3.4995">
        <ele>-6</ele>
        <time>2012-05-25T13:15:44</time>
      </trkpt>
      <trkpt lat="43.28359" lon="3.49914">
        <ele>-8</ele>
        <time>2012-05-25T13:16:14</time>
      </trkpt>
      <trkpt lat="43.28345" lon="3.49891">
        <ele>-7</ele>
        <time>2012-05-25T13:16:45</time>
      </trkpt>
      <trkpt lat="43.28345" lon="3.49902">
        <ele>-6</ele>
        <time>2012-05-25T13:17:15</time>
      </trkpt>
      <trkpt lat="43.28345" lon="3.49892">
        <ele>-6</ele>
        <time>2012-05-25T13:17:45</time>
      </trkpt>
      <trkpt lat="43.28337" lon="3.49901">
        <ele>-7</ele>
        <time>2012-05-25T13:18:15</time>
      </trkpt>
      <trkpt lat="43.28337" lon="3.49888">
        <ele>-7</ele>
        <time>2012-05-25T13:18:45</time>
      </trkpt>
      <trkpt lat="43.28344" lon="3.49893">
        <ele>-7</ele>
        <time>2012-05-25T13:20:46</time>
      </trkpt>
      <trkpt lat="43.2833" lon="3.49867">
        <ele>-8</ele>
        <time>2012-05-25T13:21:16</time>
      </trkpt>
      <trkpt lat="43.28327" lon="3.49831">
        <ele>-6</ele>
        <time>2012-05-25T13:21:47</time>
      </trkpt>
      <trkpt lat="43.28316" lon="3.49789">
        <ele>-5</ele>
        <time>2012-05-25T13:22:17</time>
      </trkpt>
      <trkpt lat="43.28299" lon="3.49758">
        <ele>-6</ele>
        <time>2012-05-25T13:22:47</time>
      </trkpt>
      <trkpt lat="43.28283" lon="3.49718">
        <ele>-6</ele>
        <time>2012-05-25T13:23:17</time>
      </trkpt>
      <trkpt lat="43.2827" lon="3.49678">
        <ele>-5</ele>
        <time>2012-05-25T13:23:47</time>
      </trkpt>
      <trkpt lat="43.28266" lon="3.49657">
        <ele>-6</ele>
        <time>2012-05-25T13:24:17</time>
      </trkpt>
      <trkpt lat="43.28253" lon="3.49623">
        <ele>-5</ele>
        <time>2012-05-25T13:24:48</time>
      </trkpt>
      <trkpt lat="43.28234" lon="3.49587">
        <ele>-4</ele>
        <time>2012-05-25T13:25:18</time>
      </trkpt>
      <trkpt lat="43.28215" lon="3.49551">
        <ele>-5</ele>
        <time>2012-05-25T13:25:48</time>
      </trkpt>
      <trkpt lat="43.28194" lon="3.49506">
        <ele>-5</ele>
        <time>2012-05-25T13:26:18</time>
      </trkpt>
      <trkpt lat="43.28175" lon="3.49465">
        <ele>-6</ele>
        <time>2012-05-25T13:26:48</time>
      </trkpt>
      <trkpt lat="43.28155" lon="3.49428">
        <ele>-6</ele>
        <time>2012-05-25T13:27:18</time>
      </trkpt>
      <trkpt lat="43.28134" lon="3.49393">
        <ele>-6</ele>
        <time>2012-05-25T13:27:49</time>
      </trkpt>
      <trkpt lat="43.28116" lon="3.49383">
        <ele>-5</ele>
        <time>2012-05-25T13:28:19</time>
      </trkpt>
      <trkpt lat="43.28096" lon="3.49348">
        <ele>-5</ele>
        <time>2012-05-25T13:28:49</time>
      </trkpt>
      <trkpt lat="43.28073" lon="3.49324">
        <ele>-5</ele>
        <time>2012-05-25T13:29:19</time>
      </trkpt>
      <trkpt lat="43.28038" lon="3.49302">
        <ele>-6</ele>
        <time>2012-05-25T13:29:49</time>
      </trkpt>
      <trkpt lat="43.28005" lon="3.49297">
        <ele>-6</ele>
        <time>2012-05-25T13:30:20</time>
      </trkpt>
      <trkpt lat="43.27987" lon="3.49324">
        <ele>-6</ele>
        <time>2012-05-25T13:30:50</time>
      </trkpt>
      <trkpt lat="43.27967" lon="3.49358">
        <ele>-5</ele>
        <time>2012-05-25T13:31:20</time>
      </trkpt>
      <trkpt lat="43.27934" lon="3.49372">
        <ele>-5</ele>
        <time>2012-05-25T13:31:50</time>
      </trkpt>
      <trkpt lat="43.27901" lon="3.49384">
        <ele>-4</ele>
        <time>2012-05-25T13:32:20</time>
      </trkpt>
      <trkpt lat="43.2787" lon="3.49405">
        <ele>-5</ele>
        <time>2012-05-25T13:32:51</time>
      </trkpt>
      <trkpt lat="43.2784" lon="3.49431">
        <ele>-5</ele>
        <time>2012-05-25T13:33:21</time>
      </trkpt>
      <trkpt lat="43.27811" lon="3.49458">
        <ele>-4</ele>
        <time>2012-05-25T13:33:51</time>
      </trkpt>
      <trkpt lat="43.27788" lon="3.49484">
        <ele>-5</ele>
        <time>2012-05-25T13:34:21</time>
      </trkpt>
      <trkpt lat="43.27758" lon="3.49514">
        <ele>-4</ele>
        <time>2012-05-25T13:34:52</time>
      </trkpt>
      <trkpt lat="43.2773" lon="3.49533">
        <ele>-3</ele>
        <time>2012-05-25T13:35:22</time>
      </trkpt>
      <trkpt lat="43.27702" lon="3.4956">
        <ele>-3</ele>
        <time>2012-05-25T13:35:52</time>
      </trkpt>
      <trkpt lat="43.27676" lon="3.4958">
        <ele>-4</ele>
        <time>2012-05-25T13:36:22</time>
      </trkpt>
      <trkpt lat="43.27641" lon="3.49597">
        <ele>-5</ele>
        <time>2012-05-25T13:36:52</time>
      </trkpt>
      <trkpt lat="43.27612" lon="3.49618">
        <ele>-4</ele>
        <time>2012-05-25T13:37:22</time>
      </trkpt>
      <trkpt lat="43.27589" lon="3.49622">
        <ele>-4</ele>
        <time>2012-05-25T13:37:53</time>
      </trkpt>
      <trkpt lat="43.27575" lon="3.49619">
        <ele>-5</ele>
        <time>2012-05-25T13:38:23</time>
      </trkpt>
      <trkpt lat="43.27574" lon="3.49619">
        <ele>-5</ele>
        <time>2012-05-25T13:38:53</time>
      </trkpt>
      <trkpt lat="43.27573" lon="3.49621">
        <ele>-4</ele>
        <time>2012-05-25T13:39:23</time>
      </trkpt>
      <trkpt lat="43.27574" lon="3.49621">
        <ele>-5</ele>
        <time>2012-05-25T13:39:53</time>
      </trkpt>
      <trkpt lat="43.2757" lon="3.49619">
        <ele>-5</ele>
        <time>2012-05-25T13:40:23</time>
      </trkpt>
      <trkpt lat="43.27575" lon="3.49617">
        <ele>-4</ele>
        <time>2012-05-25T13:40:54</time>
      </trkpt>
      <trkpt lat="43.2758" lon="3.49617">
        <ele>-4</ele>
        <time>2012-05-25T13:41:24</time>
      </trkpt>
      <trkpt lat="43.27581" lon="3.49613">
        <ele>-3</ele>
        <time>2012-05-25T13:41:54</time>
      </trkpt>
      <trkpt lat="43.2758" lon="3.49615">
        <ele>-4</ele>
        <time>2012-05-25T13:42:24</time>
      </trkpt>
      <trkpt lat="43.27585" lon="3.49611">
        <ele>-4</ele>
        <time>2012-05-25T13:42:54</time>
      </trkpt>
      <trkpt lat="43.27588" lon="3.49583">
        <ele>-3</ele>
        <time>2012-05-25T13:43:25</time>
      </trkpt>
      <trkpt lat="43.27581" lon="3.49547">
        <ele>-4</ele>
        <time>2012-05-25T13:43:55</time>
      </trkpt>
      <trkpt lat="43.27572" lon="3.4952">
        <ele>-5</ele>
        <time>2012-05-25T13:44:25</time>
      </trkpt>
      <trkpt lat="43.27575" lon="3.49477">
        <ele>-4</ele>
        <time>2012-05-25T13:44:55</time>
      </trkpt>
      <trkpt lat="43.27573" lon="3.49431">
        <ele>-3</ele>
        <time>2012-05-25T13:45:25</time>
      </trkpt>
      <trkpt lat="43.2757" lon="3.49385">
        <ele>-4</ele>
        <time>2012-05-25T13:45:56</time>
      </trkpt>
      <trkpt lat="43.27566" lon="3.4934">
        <ele>-3</ele>
        <time>2012-05-25T13:46:26</time>
      </trkpt>
      <trkpt lat="43.27559" lon="3.49292">
        <ele>-3</ele>
        <time>2012-05-25T13:46:56</time>
      </trkpt>
      <trkpt lat="43.27549" lon="3.49256">
        <ele>-3</ele>
        <time>2012-05-25T13:47:26</time>
      </trkpt>
      <trkpt lat="43.27543" lon="3.49246">
        <ele>-3</ele>
        <time>2012-05-25T13:47:56</time>
      </trkpt>
      <trkpt lat="43.27546" lon="3.49249">
        <ele>-2</ele>
        <time>2012-05-25T13:48:26</time>
      </trkpt>
      <trkpt lat="43.27544" lon="3.49247">
        <ele>-3</ele>
        <time>2012-05-25T13:48:57</time>
      </trkpt>
      <trkpt lat="43.27544" lon="3.49232">
        <ele>-3</ele>
        <time>2012-05-25T13:49:27</time>
      </trkpt>
      <trkpt lat="43.27544" lon="3.49191">
        <ele>-3</ele>
        <time>2012-05-25T13:49:57</time>
      </trkpt>
      <trkpt lat="43.27549" lon="3.49157">
        <ele>-3</ele>
        <time>2012-05-25T13:50:27</time>
      </trkpt>
      <trkpt lat="43.27547" lon="3.49116">
        <ele>-3</ele>
        <time>2012-05-25T13:50:57</time>
      </trkpt>
      <trkpt lat="43.27548" lon="3.49077">
        <ele>-3</ele>
        <time>2012-05-25T13:51:28</time>
      </trkpt>
      <trkpt lat="43.27549" lon="3.49034">
        <ele>-3</ele>
        <time>2012-05-25T13:51:58</time>
      </trkpt>
      <trkpt lat="43.2755" lon="3.48995">
        <ele>-3</ele>
        <time>2012-05-25T13:52:28</time>
      </trkpt>
      <trkpt lat="43.27549" lon="3.48955">
        <ele>-3</ele>
        <time>2012-05-25T13:52:58</time>
      </trkpt>
      <trkpt lat="43.2755" lon="3.48919">
        <ele>-3</ele>
        <time>2012-05-25T13:53:28</time>
      </trkpt>
      <trkpt lat="43.27551" lon="3.48882">
        <ele>-3</ele>
        <time>2012-05-25T13:53:58</time>
      </trkpt>
      <trkpt lat="43.27549" lon="3.48835">
        <ele>-4</ele>
        <time>2012-05-25T13:54:29</time>
      </trkpt>
      <trkpt lat="43.27539" lon="3.48789">
        <ele>-2</ele>
        <time>2012-05-25T13:54:59</time>
      </trkpt>
      <trkpt lat="43.27535" lon="3.48745">
        <ele>-4</ele>
        <time>2012-05-25T13:55:29</time>
      </trkpt>
      <trkpt lat="43.27528" lon="3.48702">
        <ele>-3</ele>
        <time>2012-05-25T13:55:59</time>
      </trkpt>
      <trkpt lat="43.27525" lon="3.48663">
        <ele>-2</ele>
        <time>2012-05-25T13:56:29</time>
      </trkpt>
      <trkpt lat="43.27519" lon="3.48621">
        <ele>-4</ele>
        <time>2012-05-25T13:56:59</time>
      </trkpt>
      <trkpt lat="43.27528" lon="3.48587">
        <ele>-4</ele>
        <time>2012-05-25T13:57:30</time>
      </trkpt>
      <trkpt lat="43.27537" lon="3.48557">
        <ele>-4</ele>
        <time>2012-05-25T13:58:00</time>
      </trkpt>
      <trkpt lat="43.27541" lon="3.4853">
        <ele>-3</ele>
        <time>2012-05-25T13:58:30</time>
      </trkpt>
      <trkpt lat="43.27555" lon="3.48514">
        <ele>-4</ele>
        <time>2012-05-25T13:59:00</time>
      </trkpt>
      <trkpt lat="43.27579" lon="3.48496">
        <ele>-3</ele>
        <time>2012-05-25T13:59:30</time>
      </trkpt>
      <trkpt lat="43.27603" lon="3.48465">
        <ele>-3</ele>
        <time>2012-05-25T14:00:01</time>
      </trkpt>
      <trkpt lat="43.2763" lon="3.48426">
        <ele>-3</ele>
        <time>2012-05-25T14:00:31</time>
      </trkpt>
      <trkpt lat="43.27648" lon="3.48394">
        <ele>-2</ele>
        <time>2012-05-25T14:01:01</time>
      </trkpt>
      <trkpt lat="43.27659" lon="3.48368">
        <ele>-2</ele>
        <time>2012-05-25T14:01:31</time>
      </trkpt>
      <trkpt lat="43.27675" lon="3.48361">
        <ele>-3</ele>
        <time>2012-05-25T14:02:02</time>
      </trkpt>
      <trkpt lat="43.27694" lon="3.48337">
        <ele>-2</ele>
        <time>2012-05-25T14:02:32</time>
      </trkpt>
      <trkpt lat="43.27706" lon="3.48322">
        <ele>-4</ele>
        <time>2012-05-25T14:03:02</time>
      </trkpt>
      <trkpt lat="43.27728" lon="3.48297">
        <ele>-3</ele>
        <time>2012-05-25T14:03:32</time>
      </trkpt>
      <trkpt lat="43.27752" lon="3.48265">
        <ele>-4</ele>
        <time>2012-05-25T14:04:03</time>
      </trkpt>
      <trkpt lat="43.27771" lon="3.48248">
        <ele>-2</ele>
        <time>2012-05-25T14:04:33</time>
      </trkpt>
      <trkpt lat="43.27792" lon="3.48258">
        <ele>-2</ele>
        <time>2012-05-25T14:05:03</time>
      </trkpt>
      <trkpt lat="43.27825" lon="3.48267">
        <ele>-2</ele>
        <time>2012-05-25T14:05:33</time>
      </trkpt>
      <trkpt lat="43.27853" lon="3.48278">
        <ele>-2</ele>
        <time>2012-05-25T14:06:03</time>
      </trkpt>
      <trkpt lat="43.27863" lon="3.48255">
        <ele>-2</ele>
        <time>2012-05-25T14:06:34</time>
      </trkpt>
      <trkpt lat="43.27848" lon="3.48217">
        <ele>4.4</ele>
        <time>2012-05-25T14:07:04</time>
      </trkpt>
      <trkpt lat="43.2784" lon="3.48181">
        <ele>-1</ele>
        <time>2012-05-25T14:07:34</time>
      </trkpt>
      <trkpt lat="43.27862" lon="3.48147">
        <ele>-1</ele>
        <time>2012-05-25T14:08:04</time>
      </trkpt>
      <trkpt lat="43.27893" lon="3.48123">
        <ele>-1</ele>
        <time>2012-05-25T14:08:34</time>
      </trkpt>
      <trkpt lat="43.27922" lon="3.48118">
        <ele>-1</ele>
        <time>2012-05-25T14:09:05</time>
      </trkpt>
      <trkpt lat="43.27942" lon="3.48115">
        <ele>5</ele>
        <time>2012-05-25T14:09:35</time>
      </trkpt>
      <trkpt lat="43.27977" lon="3.48107">
        <ele>5</ele>
        <time>2012-05-25T14:10:05</time>
      </trkpt>
      <trkpt lat="43.28005" lon="3.48112">
        <ele>5</ele>
        <time>2012-05-25T14:10:35</time>
      </trkpt>
      <trkpt lat="43.28041" lon="3.48133">
        <ele>5.1</ele>
        <time>2012-05-25T14:11:05</time>
      </trkpt>
      <trkpt lat="43.28074" lon="3.48155">
        <ele>5.3</ele>
        <time>2012-05-25T14:11:36</time>
      </trkpt>
      <trkpt lat="43.28104" lon="3.48168">
        <ele>5.7</ele>
        <time>2012-05-25T14:12:06</time>
      </trkpt>
      <trkpt lat="43.28144" lon="3.48168">
        <ele>5</ele>
        <time>2012-05-25T14:12:36</time>
      </trkpt>
      <trkpt lat="43.28175" lon="3.4818">
        <ele>5.3</ele>
        <time>2012-05-25T14:13:06</time>
      </trkpt>
      <trkpt lat="43.28207" lon="3.48177">
        <ele>1</ele>
        <time>2012-05-25T14:13:37</time>
      </trkpt>
      <trkpt lat="43.28247" lon="3.4817">
        <ele>1</ele>
        <time>2012-05-25T14:14:07</time>
      </trkpt>
      <trkpt lat="43.2828" lon="3.48168">
        <ele>6.1</ele>
        <time>2012-05-25T14:14:37</time>
      </trkpt>
      <trkpt lat="43.2831" lon="3.48168">
        <ele>1</ele>
        <time>2012-05-25T14:15:08</time>
      </trkpt>
      <trkpt lat="43.28344" lon="3.48167">
        <ele>2</ele>
        <time>2012-05-25T14:15:38</time>
      </trkpt>
      <trkpt lat="43.28371" lon="3.48164">
        <ele>3</ele>
        <time>2012-05-25T14:16:08</time>
      </trkpt>
      <trkpt lat="43.28384" lon="3.48142">
        <ele>1</ele>
        <time>2012-05-25T14:16:38</time>
      </trkpt>
      <trkpt lat="43.28392" lon="3.48123">
        <ele>1</ele>
        <time>2012-05-25T14:17:09</time>
      </trkpt>
      <trkpt lat="43.28391" lon="3.48092">
        <ele>1</ele>
        <time>2012-05-25T14:17:39</time>
      </trkpt>
      <trkpt lat="43.2839" lon="3.48056">
        <ele>1</ele>
        <time>2012-05-25T14:18:09</time>
      </trkpt>
      <trkpt lat="43.28407" lon="3.48013">
        <ele>1</ele>
        <time>2012-05-25T14:18:39</time>
      </trkpt>
      <trkpt lat="43.28418" lon="3.47962">
        <ele>2</ele>
        <time>2012-05-25T14:19:10</time>
      </trkpt>
      <trkpt lat="43.28415" lon="3.47925">
        <ele>2</ele>
        <time>2012-05-25T14:19:40</time>
      </trkpt>
      <trkpt lat="43.28401" lon="3.47894">
        <ele>2</ele>
        <time>2012-05-25T14:20:10</time>
      </trkpt>
      <trkpt lat="43.28418" lon="3.47855">
        <ele>2</ele>
        <time>2012-05-25T14:20:40</time>
      </trkpt>
      <trkpt lat="43.28417" lon="3.47831">
        <ele>2</ele>
        <time>2012-05-25T14:21:11</time>
      </trkpt>
      <trkpt lat="43.28421" lon="3.47788">
        <ele>3</ele>
        <time>2012-05-25T14:21:41</time>
      </trkpt>
      <trkpt lat="43.28429" lon="3.4775">
        <ele>2</ele>
        <time>2012-05-25T14:22:11</time>
      </trkpt>
      <trkpt lat="43.28442" lon="3.4772">
        <ele>3</ele>
        <time>2012-05-25T14:22:41</time>
      </trkpt>
      <trkpt lat="43.28466" lon="3.47686">
        <ele>3</ele>
        <time>2012-05-25T14:23:11</time>
      </trkpt>
      <trkpt lat="43.28488" lon="3.47643">
        <ele>3</ele>
        <time>2012-05-25T14:23:42</time>
      </trkpt>
      <trkpt lat="43.28506" lon="3.47603">
        <ele>3</ele>
        <time>2012-05-25T14:24:12</time>
      </trkpt>
      <trkpt lat="43.28522" lon="3.47565">
        <ele>4</ele>
        <time>2012-05-25T14:24:42</time>
      </trkpt>
      <trkpt lat="43.28547" lon="3.47514">
        <ele>2</ele>
        <time>2012-05-25T14:25:12</time>
      </trkpt>
      <trkpt lat="43.28572" lon="3.47493">
        <ele>3</ele>
        <time>2012-05-25T14:25:43</time>
      </trkpt>
      <trkpt lat="43.28605" lon="3.47503">
        <ele>3</ele>
        <time>2012-05-25T14:26:13</time>
      </trkpt>
      <trkpt lat="43.28639" lon="3.47513">
        <ele>3</ele>
        <time>2012-05-25T14:26:43</time>
      </trkpt>
      <trkpt lat="43.28672" lon="3.47527">
        <ele>4</ele>
        <time>2012-05-25T14:27:13</time>
      </trkpt>
      <trkpt lat="43.28708" lon="3.47539">
        <ele>3</ele>
        <time>2012-05-25T14:27:43</time>
      </trkpt>
      <trkpt lat="43.28738" lon="3.47554">
        <ele>3</ele>
        <time>2012-05-25T14:28:14</time>
      </trkpt>
      <trkpt lat="43.28764" lon="3.47545">
        <ele>4</ele>
        <time>2012-05-25T14:28:44</time>
      </trkpt>
      <trkpt lat="43.28786" lon="3.47568">
        <ele>4</ele>
        <time>2012-05-25T14:29:14</time>
      </trkpt>
      <trkpt lat="43.28811" lon="3.47594">
        <ele>4</ele>
        <time>2012-05-25T14:29:45</time>
      </trkpt>
      <trkpt lat="43.28834" lon="3.47588">
        <ele>5</ele>
        <time>2012-05-25T14:30:15</time>
      </trkpt>
      <trkpt lat="43.28834" lon="3.47587">
        <ele>4</ele>
        <time>2012-05-25T14:30:23</time>
      </trkpt>
    </trkseg>
  </trk>
</gpx>